Time;durP1;ratioP1;P1;durP2;ratioP2;P2;SDS_P1;SDS_P2;PMS_P1;PMS_P2;Temp;Humidity;BMP_temperature;BMP_pressure;BME280_temperature;BME280_humidity;BME280_pressure;Samples;Min_cycle;Max_cycle;Signal;HPM_P1;HPM_P2
2022/09/24 00:01:38;;;;;;;17.73;13.80;;;;;;;17.62;60.15;101241.63;4990022;28;124574;-63
2022/09/24 00:04:10;;;;;;;16.35;13.25;;;;;;;17.62;60.25;101241.63;4986324;28;109816;-63
2022/09/24 00:06:41;;;;;;;18.65;14.30;;;;;;;17.61;60.14;101239.94;4989649;28;109338;-62
2022/09/24 00:09:10;;;;;;;18.83;13.90;;;;;;;17.61;60.16;101242.63;4989703;28;124052;-63
2022/09/24 00:11:38;;;;;;;18.02;13.55;;;;;;;17.62;60.13;101241.63;4988956;28;124383;-62
2022/09/24 00:14:06;;;;;;;19.92;13.93;;;;;;;17.61;60.34;101234.59;4987584;28;109344;-63
2022/09/24 00:16:33;;;;;;;17.35;14.23;;;;;;;17.60;60.16;101227.50;4988845;28;110213;-63
2022/09/24 00:19:02;;;;;;;18.83;14.02;;;;;;;17.60;60.25;101232.84;4988234;28;125081;-63
2022/09/24 00:21:32;;;;;;;20.02;15.15;;;;;;;17.59;60.24;101241.84;4991829;28;124372;-63
2022/09/24 00:24:08;;;;;;;20.00;15.70;;;;;;;17.58;60.22;101233.94;4991974;28;109021;-63
2022/09/24 00:26:50;;;;;;;19.95;15.88;;;;;;;17.56;60.26;101230.50;4986950;28;110054;-63
2022/09/24 00:29:22;;;;;;;19.83;15.07;;;;;;;17.55;60.25;101234.97;4989232;28;124292;-63
2022/09/24 00:31:51;;;;;;;19.67;15.82;;;;;;;17.54;60.26;101230.59;4987881;28;123977;-63
2022/09/24 00:34:19;;;;;;;22.13;15.80;;;;;;;17.52;60.45;101224.50;4986812;28;110351;-62
2022/09/24 00:36:47;;;;;;;20.00;14.50;;;;;;;17.50;60.33;101231.78;4989880;28;109985;-62
2022/09/24 00:39:15;;;;;;;18.55;14.50;;;;;;;17.49;60.46;101230.06;4991610;28;124773;-62
2022/09/24 00:41:46;;;;;;;23.40;15.65;;;;;;;17.48;60.45;101237.25;4991837;28;124417;-61
2022/09/24 00:44:46;;;;;;;20.40;14.95;;;;;;;17.47;60.53;101237.34;4986742;28;109541;-61
2022/09/24 00:47:28;;;;;;;18.85;14.50;;;;;;;17.45;60.62;101228.56;4991032;28;110272;-61
2022/09/24 00:50:11;;;;;;;20.65;15.57;;;;;;;17.43;60.35;101225.13;4989594;28;124081;-61
2022/09/24 00:52:54;;;;;;;19.00;14.82;;;;;;;17.42;60.38;101226.06;4986184;28;124502;-62
2022/09/24 00:55:23;;;;;;;21.63;15.35;;;;;;;17.41;60.46;101221.69;4990677;28;109232;-61
2022/09/24 00:57:55;;;;;;;19.98;14.93;;;;;;;17.41;60.60;101216.34;4990746;28;110688;-61
2022/09/24 01:00:22;;;;;;;23.65;14.95;;;;;;;17.40;60.40;101215.44;4990070;28;124128;-62
2022/09/24 01:02:53;;;;;;;19.83;15.60;;;;;;;17.40;60.50;101209.25;4989903;28;123936;-62
2022/09/24 01:05:21;;;;;;;20.05;15.48;;;;;;;17.39;60.27;101207.56;4990304;28;107923;-62
2022/09/24 01:07:48;;;;;;;21.23;15.48;;;;;;;17.38;60.53;101205.81;4985532;28;109133;-62
2022/09/24 01:10:46;;;;;;;19.90;15.50;;;;;;;17.36;60.49;101207.75;4989934;28;125496;-62
2022/09/24 01:13:26;;;;;;;20.85;15.45;;;;;;;17.34;60.52;101204.31;4991188;28;123845;-62
2022/09/24 01:16:13;;;;;;;;;;;;;;;17.29;60.15;101202.81;4989108;28;109052;-62
2022/09/24 01:18:52;;;;;;;19.45;14.35;;;;;;;17.30;60.20;101191.13;4981176;28;107805;-62
2022/09/24 01:21:25;;;;;;;20.23;14.57;;;;;;;17.30;60.44;101192.97;4988540;28;124039;-62
2022/09/24 01:24:10;;;;;;;20.02;15.10;;;;;;;17.28;60.40;101185.03;4990135;28;125086;-61
2022/09/24 01:26:47;;;;;;;20.85;15.27;;;;;;;17.27;60.53;101177.97;4991335;28;96735;-61
2022/09/24 01:29:27;;;;;;;19.15;14.82;;;;;;;17.27;60.51;101175.28;4990255;28;109039;-62
2022/09/24 01:32:24;;;;;;;21.40;14.65;;;;;;;17.27;60.47;101177.97;4988534;28;124793;-62
2022/09/24 01:35:08;;;;;;;19.00;14.60;;;;;;;17.26;60.63;101170.88;4986428;28;124211;-61
2022/09/24 01:37:39;;;;;;;18.65;14.45;;;;;;;17.26;60.42;101170.88;4988216;28;109592;-62
2022/09/24 01:40:08;;;;;;;20.27;14.82;;;;;;;17.26;60.66;101170.03;4990699;28;110065;-62
2022/09/24 01:42:38;;;;;;;21.17;14.35;;;;;;;17.26;60.76;101165.53;4991714;28;125142;-61
2022/09/24 01:45:05;;;;;;;19.02;14.23;;;;;;;17.26;60.66;101165.53;4989165;28;124291;-61
2022/09/24 01:47:38;;;;;;;20.75;14.77;;;;;;;17.27;60.62;101167.25;4984315;28;109345;-61
2022/09/24 01:50:08;;;;;;;18.33;13.70;;;;;;;17.25;60.72;101158.47;4993508;28;108995;-61
2022/09/24 01:52:42;;;;;;;18.88;13.93;;;;;;;17.24;60.76;101162.09;4989667;28;124325;-61
2022/09/24 01:55:14;;;;;;;19.87;14.80;;;;;;;17.25;60.72;101163.84;4988194;28;125081;-61
2022/09/24 01:57:49;;;;;;;18.42;13.48;;;;;;;17.25;60.77;101153.13;4987978;28;110443;-61
2022/09/24 02:00:19;;;;;;;17.80;13.10;;;;;;;17.25;60.77;101158.47;4990337;28;110066;-61
2022/09/24 02:02:49;;;;;;;18.55;13.27;;;;;;;17.25;60.73;101154.94;4988370;28;123874;-61
2022/09/24 02:05:29;;;;;;;19.48;13.73;;;;;;;17.25;60.73;101150.44;4985480;28;124390;-61
2022/09/24 02:08:16;;;;;;;19.05;12.90;;;;;;;17.22;60.54;101150.66;4987333;28;109285;-61
2022/09/24 02:10:50;;;;;;;17.42;13.48;;;;;;;17.23;60.74;101138.97;4987884;28;109660;-61
2022/09/24 02:13:24;;;;;;;19.00;13.23;;;;;;;17.23;60.76;101144.31;4989916;28;123109;-61
2022/09/24 02:15:58;;;;;;;17.60;13.00;;;;;;;17.23;60.79;101144.31;4987544;28;122958;-61
2022/09/24 02:18:31;;;;;;;17.47;12.83;;;;;;;17.23;60.71;101138.97;4987994;28;110127;-61
2022/09/24 02:21:05;;;;;;;18.05;13.10;;;;;;;17.25;60.78;101147.78;4990371;28;109950;-60
2022/09/24 02:23:38;;;;;;;18.27;12.90;;;;;;;17.24;60.57;101140.69;4987418;28;123123;-61
2022/09/24 02:26:06;;;;;;;17.35;13.23;;;;;;;17.25;60.67;101139.75;4986081;28;123882;-61
2022/09/24 02:28:33;;;;;;;17.42;13.15;;;;;;;17.25;60.70;101147.78;4991502;28;109068;-61
2022/09/24 02:31:17;;;;;;;19.30;13.70;;;;;;;17.24;60.62;101135.34;4994528;28;109909;-61
2022/09/24 02:36:37;;;;;;;18.52;13.35;;;;;;;17.21;60.72;101132.84;4992185;28;123721;-62
2022/09/24 02:39:04;;;;;;;18.25;13.10;;;;;;;17.23;60.86;101136.28;4989769;28;109159;-62
2022/09/24 02:41:32;;;;;;;19.02;14.20;;;;;;;17.21;60.72;101135.53;4994860;28;110099;-62
2022/09/24 02:43:59;;;;;;;18.55;13.77;;;;;;;17.20;60.76;101133.84;4988807;28;123910;-61
2022/09/24 02:46:27;;;;;;;19.10;13.95;;;;;;;17.20;60.83;101133.00;4988312;28;123635;-61
2022/09/24 02:48:55;;;;;;;18.42;14.05;;;;;;;17.19;60.74;101131.25;4989923;28;109400;-62
2022/09/24 02:51:22;;;;;;;17.23;13.15;;;;;;;17.19;60.94;101132.09;4992530;28;109888;-62
2022/09/24 02:53:49;;;;;;;17.55;14.05;;;;;;;17.18;60.95;101130.41;4991220;28;124724;-61
2022/09/24 02:56:16;;;;;;;21.33;14.40;;;;;;;17.18;60.93;101130.41;4991521;28;124241;-61
2022/09/24 02:58:43;;;;;;;20.10;14.70;;;;;;;17.17;61.08;101126.00;4993063;28;109163;-61
2022/09/24 03:01:10;;;;;;;19.67;14.32;;;;;;;17.17;60.76;101123.34;4993657;28;110042;-61
2022/09/24 03:03:37;;;;;;;21.13;14.95;;;;;;;17.17;60.85;101123.34;4993988;28;125590;-61
2022/09/24 03:06:05;;;;;;;19.60;14.95;;;;;;;17.17;61.11;101123.34;4985980;28;123986;-61
2022/09/24 03:08:34;;;;;;;20.00;15.05;;;;;;;17.15;61.17;101125.25;4993080;28;110002;-61
2022/09/24 03:11:01;;;;;;;21.25;14.75;;;;;;;17.14;61.01;101123.56;4988591;28;110490;-61
2022/09/24 03:13:28;;;;;;;20.50;15.45;;;;;;;17.15;60.92;101114.56;4992044;28;123167;-61
2022/09/24 03:15:55;;;;;;;22.02;15.65;;;;;;;17.15;61.07;101114.56;4991197;28;122683;-61
2022/09/24 03:18:22;;;;;;;21.35;15.32;;;;;;;17.15;61.01;101124.41;4991735;28;108946;-61
2022/09/24 03:21:01;;;;;;;21.95;15.70;;;;;;;17.13;60.97;101111.13;4991033;28;110190;-61
2022/09/24 03:23:28;;;;;;;25.48;16.80;;;;;;;17.13;61.14;101111.13;4992974;28;123816;-61
2022/09/24 03:25:55;;;;;;;23.40;16.00;;;;;;;17.14;61.14;101112.84;4988499;28;123722;-61
2022/09/24 03:28:26;;;;;;;22.15;16.67;;;;;;;17.14;61.13;101112.84;4993006;28;109513;-61
2022/09/24 03:30:59;;;;;;;24.60;17.02;;;;;;;17.15;61.15;101111.88;4992987;28;109854;-61
2022/09/24 03:33:33;;;;;;;23.55;17.77;;;;;;;17.13;61.16;101116.47;4988769;28;125750;-61
2022/09/24 03:36:11;;;;;;;23.30;17.52;;;;;;;17.11;61.15;101113.06;4986564;28;123897;-61
2022/09/24 03:38:40;;;;;;;26.98;17.50;;;;;;;17.10;61.18;101116.69;4990775;28;108979;-61
2022/09/24 03:41:08;;;;;;;27.65;18.92;;;;;;;17.10;61.11;101116.69;4993067;28;109899;-61
2022/09/24 03:43:36;;;;;;;27.65;19.67;;;;;;;17.09;61.26;101114.97;4991934;28;123590;-62
2022/09/24 03:46:05;;;;;;;25.33;19.27;;;;;;;17.06;61.15;101104.47;4990177;28;123770;-61
2022/09/24 03:48:34;;;;;;;28.45;19.13;;;;;;;17.04;61.39;101106.41;4988709;28;109038;-62
2022/09/24 03:51:06;;;;;;;27.50;19.90;;;;;;;17.02;61.50;101109.16;4993741;28;109831;-61
2022/09/24 03:53:33;;;;;;;28.17;20.10;;;;;;;17.01;61.53;101112.81;4992958;28;124147;-62
2022/09/24 03:56:05;;;;;;;30.08;21.15;;;;;;;17.02;61.53;101105.66;4987093;28;124421;-62
2022/09/24 03:58:37;;;;;;;30.77;21.08;;;;;;;17.01;61.50;101101.25;4989592;28;110225;-61
2022/09/24 04:01:06;;;;;;;26.92;20.75;;;;;;;17.00;61.84;101100.41;4990954;28;110463;-61
2022/09/24 04:03:33;;;;;;;31.80;22.63;;;;;;;17.01;61.51;101102.13;4987973;28;123309;-62
2022/09/24 04:06:00;;;;;;;31.13;22.02;;;;;;;17.02;61.58;101108.31;4991760;28;123839;-61
2022/09/24 04:08:28;;;;;;;30.00;21.52;;;;;;;17.01;61.55;101102.13;4992621;28;109488;-61
2022/09/24 04:10:55;;;;;;;34.25;23.55;;;;;;;17.02;61.80;101102.97;4993011;28;110236;-61
2022/09/24 04:13:22;;;;;;;30.83;23.17;;;;;;;17.01;61.83;101095.88;4992820;28;124446;-62
2022/09/24 04:15:50;;;;;;;35.28;23.48;;;;;;;17.00;62.00;101099.53;4991024;28;124797;-61
2022/09/24 04:18:17;;;;;;;32.15;23.33;;;;;;;17.00;61.91;101094.19;4990953;28;109281;-61
2022/09/24 04:20:45;;;;;;;32.85;23.63;;;;;;;16.99;61.82;101087.13;4990952;28;109903;-61
2022/09/24 04:23:13;;;;;;;33.47;23.55;;;;;;;17.00;61.86;101091.53;4987513;28;124249;-61
2022/09/24 04:25:40;;;;;;;32.65;22.95;;;;;;;17.00;61.82;101083.50;4972469;28;123968;-61
2022/09/24 04:28:08;;;;;;;33.05;24.02;;;;;;;17.01;61.96;101077.16;4990804;28;108279;-61
2022/09/24 04:30:37;;;;;;;32.83;24.25;;;;;;;17.02;61.59;101076.22;4992188;28;109780;-61
2022/09/24 04:33:05;;;;;;;32.53;23.63;;;;;;;17.01;62.02;101072.69;4987079;28;123823;-61
2022/09/24 04:35:34;;;;;;;31.33;22.85;;;;;;;17.01;61.92;101074.47;4989111;28;124008;-61
2022/09/24 04:38:03;;;;;;;32.72;22.77;;;;;;;16.99;61.98;101071.06;4988152;28;109626;-62
2022/09/24 04:40:31;;;;;;;34.95;23.33;;;;;;;16.99;61.97;101071.06;4988065;28;109408;-61
2022/09/24 04:42:58;;;;;;;30.88;22.13;;;;;;;16.98;62.05;101069.38;4988278;28;123953;-61
2022/09/24 04:45:25;;;;;;;30.42;21.67;;;;;;;16.96;61.99;101076.63;4988060;28;123542;-62
2022/09/24 04:47:56;;;;;;;31.80;21.75;;;;;;;16.96;61.94;101071.28;4984907;28;110096;-62
2022/09/24 04:50:26;;;;;;;29.30;21.42;;;;;;;16.96;61.88;101071.28;4987968;28;110384;-63
2022/09/24 04:52:54;;;;;;;27.70;20.83;;;;;;;16.95;62.00;101074.91;4987383;28;124116;-63
2022/09/24 04:55:22;;;;;;;28.35;21.13;;;;;;;16.95;62.01;101082.94;4966242;28;122615;-62
2022/09/24 04:57:50;;;;;;;27.17;20.60;;;;;;;16.95;62.00;101070.41;4992143;28;108515;-63
2022/09/24 05:00:19;;;;;;;28.13;19.60;;;;;;;16.97;62.13;101075.66;4975808;28;109347;-62
2022/09/24 05:02:47;;;;;;;27.55;20.02;;;;;;;16.96;61.91;101076.63;4988204;28;123274;-62
2022/09/24 05:05:14;;;;;;;28.73;20.25;;;;;;;16.95;62.09;101074.91;4989401;28;124016;-61
2022/09/24 05:07:43;;;;;;;25.92;19.48;;;;;;;16.95;62.01;101075.75;4988225;28;109681;-61
2022/09/24 05:10:10;;;;;;;27.35;19.75;;;;;;;16.95;62.07;101077.59;4990656;28;110506;-61
2022/09/24 05:12:39;;;;;;;27.13;20.00;;;;;;;16.95;62.09;101081.13;4991007;28;124164;-62
2022/09/24 05:15:07;;;;;;;28.70;19.58;;;;;;;16.96;62.02;101076.63;4990729;28;122836;-62
2022/09/24 05:17:38;;;;;;;23.98;18.40;;;;;;;16.95;62.16;101080.25;4983524;28;109133;-61
2022/09/24 05:20:06;;;;;;;27.80;19.00;;;;;;;16.96;62.13;101082.00;4989224;28;108809;-62
2022/09/24 05:22:35;;;;;;;25.15;18.80;;;;;;;16.97;62.01;101089.03;4988524;28;123882;-61
2022/09/24 05:25:02;;;;;;;25.02;18.60;;;;;;;16.97;62.11;101086.38;4991353;28;123419;-61
2022/09/24 05:27:29;;;;;;;26.65;19.45;;;;;;;16.98;62.20;101085.41;4991357;28;109673;-61
2022/09/24 05:29:56;;;;;;;25.95;19.02;;;;;;;16.98;61.99;101090.78;4992592;28;111622;-61
2022/09/24 05:32:24;;;;;;;24.90;17.95;;;;;;;16.99;62.17;101084.44;4990358;28;122962;-61
2022/09/24 05:34:52;;;;;;;22.90;17.20;;;;;;;16.99;62.11;101087.13;4986750;28;124700;-61
2022/09/24 05:37:19;;;;;;;24.02;18.13;;;;;;;16.99;62.13;101082.66;4987792;28;110239;-61
2022/09/24 05:39:47;;;;;;;24.40;17.13;;;;;;;17.00;62.17;101083.50;4989006;28;108875;-62
2022/09/24 05:42:14;;;;;;;22.83;17.15;;;;;;;17.01;62.05;101079.84;4984717;28;124041;-61
2022/09/24 05:44:42;;;;;;;22.05;16.40;;;;;;;17.00;61.95;101088.84;4988240;28;123629;-61
2022/09/24 05:47:12;;;;;;;24.20;16.85;;;;;;;17.00;62.16;101094.19;4987530;28;108348;-61
2022/09/24 05:49:39;;;;;;;21.38;16.67;;;;;;;16.99;62.09;101087.13;4990561;28;110406;-61
2022/09/24 05:52:06;;;;;;;22.63;15.95;;;;;;;16.99;62.05;101093.34;4990036;28;124720;-61
2022/09/24 05:54:33;;;;;;;20.75;16.05;;;;;;;16.98;62.10;101088.09;4987306;28;122783;-61
2022/09/24 05:57:00;;;;;;;21.73;15.70;;;;;;;16.98;62.16;101096.13;4989505;28;108959;-61
2022/09/24 05:59:27;;;;;;;22.00;16.48;;;;;;;16.99;62.16;101100.50;4987040;28;110628;-61
2022/09/24 06:01:54;;;;;;;22.10;15.52;;;;;;;16.97;62.20;101095.28;4990107;28;124687;-61
2022/09/24 06:04:22;;;;;;;22.98;16.02;;;;;;;16.97;62.10;101100.63;4988917;28;124451;-62
2022/09/24 06:06:49;;;;;;;23.65;15.35;;;;;;;16.98;62.28;101101.47;4992822;28;108025;-62
2022/09/24 06:09:16;;;;;;;21.10;15.20;;;;;;;16.98;62.31;101101.47;4990729;28;110087;-61
2022/09/24 06:11:43;;;;;;;20.40;14.88;;;;;;;16.99;62.39;101103.16;4994326;28;122620;-62
2022/09/24 06:14:11;;;;;;;20.38;14.85;;;;;;;16.99;62.38;101103.16;4993779;28;122243;-61
2022/09/24 06:16:39;;;;;;;21.35;14.60;;;;;;;17.01;62.39;101109.28;4995583;28;109268;-61
2022/09/24 06:19:06;;;;;;;19.55;14.27;;;;;;;17.02;62.43;101111.00;4991098;28;109593;-61
2022/09/24 06:21:33;;;;;;;21.50;15.38;;;;;;;17.02;62.51;101113.69;4993097;28;125457;-61
2022/09/24 06:24:00;;;;;;;21.75;14.98;;;;;;;17.04;62.41;101112.59;4993856;28;125305;-61
2022/09/24 06:26:27;;;;;;;19.83;14.85;;;;;;;17.05;62.43;101108.13;4990782;28;110211;-61
2022/09/24 06:28:55;;;;;;;19.98;14.90;;;;;;;17.06;62.60;101115.19;4989838;28;109899;-61
2022/09/24 06:31:28;;;;;;;19.02;14.85;;;;;;;17.06;62.66;101115.19;4994922;28;123777;-61
2022/09/24 06:33:55;;;;;;;17.83;14.77;;;;;;;17.08;62.60;101110.56;4989910;28;123899;-61
2022/09/24 06:36:22;;;;;;;18.90;14.35;;;;;;;17.07;62.71;101108.88;4993200;28;108279;-62
2022/09/24 06:38:50;;;;;;;19.95;14.88;;;;;;;17.09;62.49;101117.66;4991494;28;109914;-61
2022/09/24 06:41:17;;;;;;;19.45;14.77;;;;;;;17.10;62.76;101122.03;4993203;28;123894;-62
2022/09/24 06:43:45;;;;;;;18.27;14.30;;;;;;;17.12;62.77;101120.09;4992478;28;123779;-62
2022/09/24 06:46:14;;;;;;;21.75;15.55;;;;;;;17.15;62.59;101127.94;4992481;28;109343;-62
2022/09/24 06:48:41;;;;;;;20.95;15.40;;;;;;;17.17;62.79;101122.47;4993003;28;109972;-62
2022/09/24 06:51:09;;;;;;;20.25;15.52;;;;;;;17.19;62.72;101126.75;4992368;28;124966;-64
2022/09/24 06:53:36;;;;;;;21.40;14.90;;;;;;;17.21;62.74;101126.66;4991053;28;123873;-62
2022/09/24 06:56:03;;;;;;;21.13;15.57;;;;;;;17.22;62.76;101126.56;4991023;28;109015;-62
2022/09/24 06:58:30;;;;;;;19.88;15.70;;;;;;;17.23;62.86;101133.59;4994713;28;110373;-62
2022/09/24 07:01:01;;;;;;;20.55;16.05;;;;;;;17.25;62.64;101129.03;4991615;28;124532;-62
2022/09/24 07:03:33;;;;;;;22.63;16.05;;;;;;;17.24;62.72;101134.50;4992248;28;125663;-62
2022/09/24 07:06:03;;;;;;;23.08;16.55;;;;;;;17.25;62.80;101131.72;4991428;28;109254;-63
2022/09/24 07:08:31;;;;;;;22.02;16.40;;;;;;;17.25;62.68;101137.06;4990841;28;110975;-62
2022/09/24 07:10:59;;;;;;;22.67;16.88;;;;;;;17.25;62.50;101131.72;4990827;28;124421;-62
2022/09/24 07:13:26;;;;;;;21.70;17.00;;;;;;;17.24;62.71;101135.34;4993021;28;124906;-62
2022/09/24 07:15:54;;;;;;;21.13;16.42;;;;;;;17.25;62.75;101137.06;4990724;28;110797;-62
2022/09/24 07:18:21;;;;;;;23.70;17.45;;;;;;;17.24;62.81;101135.34;4992078;28;109844;-62
2022/09/24 07:20:55;;;;;;;23.10;16.77;;;;;;;17.23;63.01;101144.31;4991106;28;124107;-62
2022/09/24 07:23:23;;;;;;;25.58;17.40;;;;;;;17.24;62.74;101151.41;4991661;28;123593;-62
2022/09/24 07:25:54;;;;;;;22.88;17.83;;;;;;;17.23;62.81;101149.66;4993462;28;109270;-62
2022/09/24 07:28:22;;;;;;;23.25;17.38;;;;;;;17.25;62.77;101150.44;4992853;28;110027;-62
2022/09/24 07:30:56;;;;;;;23.38;17.52;;;;;;;17.22;62.74;101153.31;4987576;28;124103;-62
2022/09/24 07:33:24;;;;;;;24.65;17.67;;;;;;;17.22;62.82;101150.66;4989980;28;124565;-62
2022/09/24 07:35:51;;;;;;;22.80;17.15;;;;;;;17.22;62.89;101153.31;4989987;28;109217;-62
2022/09/24 07:38:18;;;;;;;26.02;17.50;;;;;;;17.22;62.81;101153.31;4990427;28;108977;-62
2022/09/24 07:40:45;;;;;;;24.48;17.88;;;;;;;17.23;62.76;101149.66;4988492;28;124657;-62
2022/09/24 07:43:13;;;;;;;24.10;17.50;;;;;;;17.24;63.06;101151.41;4991538;28;123901;-62
2022/09/24 07:45:41;;;;;;;25.42;18.58;;;;;;;17.27;63.02;101156.56;4986495;28;110673;-62
2022/09/24 07:48:09;;;;;;;26.40;19.65;;;;;;;17.29;63.01;101159.09;4988570;28;109843;-62
2022/09/24 07:50:39;;;;;;;24.67;19.20;;;;;;;17.29;63.08;101165.34;4991266;28;125552;-62
2022/09/24 07:53:10;;;;;;;26.10;19.50;;;;;;;17.31;63.01;101163.41;4992406;28;124875;-62
2022/09/24 07:55:39;;;;;;;24.77;18.67;;;;;;;17.31;62.92;101160.72;4989162;28;109201;-61
2022/09/24 07:58:10;;;;;;;24.95;18.50;;;;;;;17.30;63.04;101171.53;4992478;28;110542;-62
2022/09/24 08:00:38;;;;;;;26.52;19.27;;;;;;;17.30;62.96;101167.03;4988961;28;123298;-62
2022/09/24 08:03:06;;;;;;;25.48;19.05;;;;;;;17.30;63.05;101167.03;4987553;28;123964;-62
2022/09/24 08:05:33;;;;;;;24.00;18.02;;;;;;;17.31;62.94;101171.44;4988521;28;110003;-62
2022/09/24 08:08:01;;;;;;;26.60;18.83;;;;;;;17.33;63.20;101163.31;4987087;28;110465;-62
2022/09/24 08:10:28;;;;;;;23.60;18.35;;;;;;;17.35;63.13;101174.78;4992590;28;124088;-62
2022/09/24 08:13:01;;;;;;;25.80;18.73;;;;;;;17.37;63.21;101166.63;4988698;28;123836;-61
2022/09/24 08:15:28;;;;;;;25.33;18.52;;;;;;;17.39;63.18;101178.09;4992134;28;109309;-62
2022/09/24 08:18:03;;;;;;;25.65;19.27;;;;;;;17.39;63.22;101175.41;4988748;28;109279;-62
2022/09/24 08:20:31;;;;;;;27.30;19.30;;;;;;;17.40;63.29;101171.75;4990168;28;123944;-62
2022/09/24 08:23:03;;;;;;;25.48;18.52;;;;;;;17.42;63.35;101180.53;4990294;28;124492;-62
2022/09/24 08:25:31;;;;;;;25.35;18.75;;;;;;;17.43;63.15;101176.91;4988246;28;109389;-61
2022/09/24 08:28:03;;;;;;;25.30;18.38;;;;;;;17.43;63.24;101179.59;4991358;28;109972;-61
2022/09/24 08:30:31;;;;;;;23.65;18.77;;;;;;;17.43;63.15;101187.63;4992994;28;124109;-62
2022/09/24 08:32:58;;;;;;;27.17;17.90;;;;;;;17.45;63.23;101180.34;4989955;28;123983;-62
2022/09/24 08:35:26;;;;;;;27.50;18.40;;;;;;;17.46;63.35;101182.94;4990092;28;107168;-62
2022/09/24 08:37:53;;;;;;;22.05;17.40;;;;;;;17.49;63.23;101192.56;4992072;28;110332;-62
2022/09/24 08:40:23;;;;;;;26.20;18.70;;;;;;;17.49;63.22;101189.88;4992610;28;124275;-62
2022/09/24 08:42:59;;;;;;;24.38;17.73;;;;;;;17.52;63.42;101187.84;4986680;28;125032;-61
2022/09/24 08:48:33;;;;;;;23.63;18.48;;;;;;;17.57;63.30;101190.19;4988448;28;109883;-62
2022/09/24 08:51:06;;;;;;;24.92;18.00;;;;;;;17.60;63.47;101187.31;4992000;28;124000;-62
2022/09/24 08:53:53;;;;;;;26.33;18.20;;;;;;;17.63;63.23;101189.78;4988628;28;124320;-62
2022/09/24 08:56:26;;;;;;;24.40;18.27;;;;;;;17.66;63.47;101194.06;4987725;28;110261;-62
2022/09/24 08:59:02;;;;;;;25.20;18.27;;;;;;;17.70;63.58;101201.78;4973817;28;108944;-62
2022/09/24 09:01:41;;;;;;;26.65;17.60;;;;;;;17.71;63.43;101198.16;4977774;28;123208;-62
2022/09/24 09:04:17;;;;;;;21.23;17.52;;;;;;;17.73;63.34;101206.09;4987179;28;123921;-62
2022/09/24 09:07:10;;;;;;;22.60;17.35;;;;;;;17.74;63.27;101206.94;4982576;28;109018;-62
2022/09/24 09:09:59;;;;;;;24.45;17.05;;;;;;;17.75;63.13;101205.97;4990900;28;109881;-62
2022/09/24 09:12:35;;;;;;;24.27;17.17;;;;;;;17.76;63.46;101215.72;4985490;28;125106;-62
2022/09/24 09:15:08;;;;;;;22.02;17.50;;;;;;;17.79;63.51;101210.16;4984785;28;124406;-62
2022/09/24 09:17:55;;;;;;;22.05;16.55;;;;;;;17.82;63.17;101204.56;4980529;28;108544;-62
2022/09/24 09:20:40;;;;;;;22.33;16.42;;;;;;;17.83;63.32;101217.00;4986082;28;109880;-62
2022/09/24 09:23:18;;;;;;;25.13;17.67;;;;;;;17.85;63.31;101215.13;4984926;28;125513;-62
2022/09/24 09:25:51;;;;;;;22.13;16.17;;;;;;;17.87;63.28;101213.19;4983662;28;123821;-62
2022/09/24 09:28:19;;;;;;;22.02;16.42;;;;;;;17.91;63.20;101214.69;4983320;28;108207;-62
2022/09/24 09:30:57;;;;;;;21.40;16.40;;;;;;;17.91;63.28;101220.03;4972458;28;109513;-62
2022/09/24 09:33:30;;;;;;;22.15;17.17;;;;;;;17.93;63.26;101220.78;4983694;28;124465;-62
2022/09/24 09:36:10;;;;;;;22.48;15.95;;;;;;;17.95;63.30;101226.94;4985109;28;123606;-62
2022/09/24 09:38:55;;;;;;;20.08;15.48;;;;;;;17.96;63.25;101223.25;4985247;28;109252;-62
2022/09/24 09:41:30;;;;;;;20.73;15.73;;;;;;;17.99;63.19;101217.69;4985978;28;109483;-62
2022/09/24 09:44:12;;;;;;;21.65;16.02;;;;;;;18.00;63.18;101223.91;4984144;28;123920;-62
2022/09/24 09:46:50;;;;;;;21.50;16.27;;;;;;;18.01;63.05;101221.13;4991839;28;124190;-62
2022/09/24 09:49:17;;;;;;;21.60;16.25;;;;;;;18.03;63.19;101219.19;4989717;28;110334;-62
2022/09/24 09:51:47;;;;;;;21.58;16.13;;;;;;;18.05;63.29;101222.63;4992543;28;109649;-62
2022/09/24 09:54:14;;;;;;;23.08;16.52;;;;;;;18.08;63.18;101219.72;4986865;28;124164;-62
2022/09/24 09:56:46;;;;;;;22.27;16.73;;;;;;;18.11;63.16;101220.47;4985990;28;124512;-62
2022/09/24 09:59:20;;;;;;;21.45;15.77;;;;;;;18.16;63.29;101218.31;4987869;28;109176;-62
2022/09/24 10:01:55;;;;;;;21.80;16.50;;;;;;;18.19;63.04;101223.47;4987952;28;110044;-62
2022/09/24 10:04:26;;;;;;;23.13;16.55;;;;;;;18.21;63.14;101221.53;4990058;28;123677;-61
2022/09/24 10:07:09;;;;;;;25.75;16.80;;;;;;;18.23;62.95;101219.59;4988082;28;123929;-62
2022/09/24 10:09:39;;;;;;;19.05;15.68;;;;;;;18.24;63.07;101226.69;4990800;28;109027;-62
2022/09/24 10:12:27;;;;;;;21.02;16.27;;;;;;;18.24;62.85;101229.38;4989461;28;110234;-62
2022/09/24 10:15:25;;;;;;;20.77;15.88;;;;;;;18.26;62.78;101219.38;4991601;28;123834;-62
2022/09/24 10:17:54;;;;;;;21.73;16.23;;;;;;;18.28;62.94;101233.53;4971598;28;123545;-62
2022/09/24 10:20:27;;;;;;;20.80;16.58;;;;;;;18.31;62.95;101222.59;4990991;28;109379;-62
2022/09/24 10:22:58;;;;;;;22.05;16.67;;;;;;;18.34;62.86;101222.34;4987436;28;110482;-62
2022/09/24 10:25:27;;;;;;;23.60;16.48;;;;;;;18.37;62.67;101224.84;4988727;28;123830;-61
2022/09/24 10:30:32;;;;;;;20.17;15.88;;;;;;;18.37;62.63;101216.78;4980935;28;123858;-62
2022/09/24 10:30:59;;;;;;;23.35;16.95;;;;;;;18.40;62.96;101211.22;4980587;28;109266;-62
2022/09/24 10:33:36;;;;;;;19.85;16.20;;;;;;;18.43;62.58;101204.75;4986276;28;109784;-62
2022/09/24 10:36:13;;;;;;;21.90;16.90;;;;;;;18.44;62.65;101207.34;4992008;28;125082;-62
2022/09/24 10:38:40;;;;;;;22.40;16.48;;;;;;;18.47;62.48;101212.47;4991587;28;122857;-62
2022/09/24 10:41:13;;;;;;;22.58;17.15;;;;;;;18.49;62.80;101215.88;4990833;28;110222;-62
2022/09/24 10:43:49;;;;;;;23.05;17.92;;;;;;;18.54;62.79;101215.56;4992297;28;110014;-62
2022/09/24 10:46:35;;;;;;;22.58;16.38;;;;;;;18.57;62.60;101212.66;4989376;28;123876;-63
2022/09/24 10:49:28;;;;;;;21.92;17.33;;;;;;;18.63;62.61;101222.09;4992801;28;123760;-62
2022/09/24 10:52:24;;;;;;;23.17;16.67;;;;;;;18.64;62.48;101213.06;4995738;28;109268;-62
2022/09/24 10:55:10;;;;;;;20.75;15.73;;;;;;;18.66;62.30;101221.84;4977127;28;109906;-62
2022/09/24 10:57:58;;;;;;;22.65;16.63;;;;;;;18.65;62.46;101220.16;4986575;28;125569;-61
2022/09/24 11:00:38;;;;;;;21.48;16.77;;;;;;;18.67;62.29;101220.91;4994891;28;123869;-62
2022/09/24 11:03:06;;;;;;;21.92;16.88;;;;;;;18.70;62.34;101223.34;4981420;28;109048;-62
2022/09/24 11:06:00;;;;;;;20.02;16.42;;;;;;;18.73;62.17;101225.81;4975904;28;109710;-62
2022/09/24 11:08:47;;;;;;;22.85;17.30;;;;;;;18.76;62.11;101220.22;4980582;28;123788;-62
2022/09/24 11:11:43;;;;;;;19.77;16.45;;;;;;;18.79;62.06;101221.81;4977363;28;124013;-62
2022/09/24 11:14:22;;;;;;;21.73;16.80;;;;;;;18.82;62.12;101222.47;4993390;28;108302;-62
2022/09/24 11:16:55;;;;;;;21.00;16.85;;;;;;;18.85;61.83;101226.75;4990485;28;110268;-62
2022/09/24 11:20:13;;;;;;;20.77;16.55;;;;;;;18.85;61.92;101216.91;4986316;28;124104;-62
2022/09/24 11:23:14;;;;;;;20.08;16.15;;;;;;;18.87;61.73;101219.44;4949665;28;123698;-62
2022/09/24 11:25:54;;;;;;;19.95;16.27;;;;;;;18.86;61.67;101223.97;4990161;28;109194;-62
2022/09/24 11:28:43;;;;;;;21.40;16.58;;;;;;;18.88;61.52;101231.06;4990668;28;109983;-62
2022/09/24 11:31:13;;;;;;;21.23;16.63;;;;;;;18.89;61.64;101228.22;4985945;28;124675;-62